createdAt,value
2019-01-18T00:00:50.710Z,18.36
2019-01-18T00:01:50.693Z,18.37
2019-01-18T00:02:50.369Z,18.37
2019-01-18T00:03:51.121Z,18.37
2019-01-18T00:04:50.428Z,18.36
2019-01-18T00:05:50.400Z,18.35
2019-01-18T00:06:50.720Z,18.35
2019-01-18T00:07:50.442Z,18.35
2019-01-18T00:08:50.545Z,18.32
2019-01-18T00:09:50.428Z,18.35
2019-01-18T00:10:50.765Z,18.32
2019-01-18T00:11:50.311Z,18.32
2019-01-18T00:12:50.727Z,18.33
2019-01-18T00:13:50.798Z,18.29
2019-01-18T00:14:50.901Z,18.29
2019-01-18T00:15:50.890Z,18.3
2019-01-18T00:16:50.425Z,18.29
2019-01-18T00:17:50.861Z,18.29
2019-01-18T00:18:50.397Z,18.28
2019-01-18T00:19:50.391Z,18.29
2019-01-18T00:20:50.822Z,18.26
2019-01-18T00:21:50.957Z,18.26
2019-01-18T00:22:50.882Z,18.26
2019-01-18T00:23:50.853Z,18.25
2019-01-18T00:24:50.788Z,18.28
2019-01-18T00:25:50.446Z,18.28
2019-01-18T00:26:50.487Z,18.26
2019-01-18T00:27:50.458Z,18.25
2019-01-18T00:28:50.897Z,18.23
2019-01-18T00:29:50.456Z,18.23
2019-01-18T00:30:50.772Z,18.23
2019-01-18T00:31:50.715Z,18.22
2019-01-18T00:32:50.303Z,18.23
2019-01-18T00:33:50.753Z,18.23
2019-01-18T00:34:50.770Z,18.21
2019-01-18T00:35:50.317Z,18.23
2019-01-18T00:36:50.732Z,18.22
2019-01-18T00:37:50.766Z,18.22
2019-01-18T00:38:50.405Z,18.19
2019-01-18T00:39:50.758Z,18.21
2019-01-18T00:40:50.775Z,18.22
2019-01-18T00:41:50.412Z,18.22
2019-01-18T00:42:50.641Z,18.21
2019-01-18T00:43:50.479Z,18.18
2019-01-18T00:44:50.395Z,18.19
2019-01-18T00:45:50.756Z,18.18
2019-01-18T00:46:53.328Z,18.16
2019-01-18T00:47:51.034Z,18.18
2019-01-18T00:48:50.749Z,18.15
2019-01-18T00:49:51.136Z,18.18
2019-01-18T00:50:50.947Z,18.15
2019-01-18T00:51:51.074Z,18.15
2019-01-18T00:52:50.504Z,18.16
2019-01-18T00:53:50.460Z,18.15
2019-01-18T00:54:50.775Z,18.15
2019-01-18T00:55:51.265Z,18.12
2019-01-18T00:56:50.360Z,18.13
2019-01-18T00:57:50.486Z,18.13
2019-01-18T00:58:50.617Z,18.12
2019-01-18T00:59:50.418Z,18.12
2019-01-18T01:00:50.836Z,18.13
2019-01-18T01:01:50.380Z,18.12
2019-01-18T01:02:50.988Z,18.13
2019-01-18T01:03:51.071Z,18.11
2019-01-18T01:04:51.363Z,18.11
2019-01-18T01:05:50.534Z,18.12
2019-01-18T01:06:50.756Z,18.11
2019-01-18T01:07:51.310Z,18.09
2019-01-18T01:08:50.879Z,18.09
2019-01-18T01:09:52.035Z,18.09
2019-01-18T01:10:50.440Z,18.09
2019-01-18T01:11:50.674Z,18.09
2019-01-18T01:12:50.565Z,18.07
2019-01-18T01:13:50.658Z,18.11
2019-01-18T01:14:50.509Z,18.07
2019-01-18T01:15:50.561Z,18.05
2019-01-18T01:16:50.428Z,18.07
2019-01-18T01:17:50.848Z,18.07
2019-01-18T01:18:50.278Z,18.04
2019-01-18T01:19:50.678Z,18.05
2019-01-18T01:20:50.554Z,18.05
2019-01-18T01:21:51.161Z,18.05
2019-01-18T01:22:50.345Z,18.07
2019-01-18T01:23:51.137Z,18.05
2019-01-18T01:24:50.730Z,18.04
2019-01-18T01:25:50.668Z,18.02
2019-01-18T01:26:50.478Z,18.04
2019-01-18T01:27:50.711Z,18.05
2019-01-18T01:28:50.380Z,18.05
2019-01-18T01:29:50.216Z,18.02
2019-01-18T01:30:50.332Z,18.05
2019-01-18T01:31:50.641Z,18.02
2019-01-18T01:32:50.965Z,18
2019-01-18T01:33:50.380Z,18.01
2019-01-18T01:34:50.516Z,18
2019-01-18T01:35:50.761Z,17.98
2019-01-18T01:36:50.778Z,17.98
2019-01-18T01:37:50.355Z,18.01
2019-01-18T01:38:50.799Z,18
2019-01-18T01:39:50.834Z,18
2019-01-18T01:40:50.410Z,18
2019-01-18T01:41:50.708Z,18.01
2019-01-18T01:42:50.508Z,17.98
2019-01-18T01:43:50.701Z,17.97
2019-01-18T01:44:50.497Z,18
2019-01-18T01:45:50.736Z,17.97
2019-01-18T01:46:50.683Z,17.95
2019-01-18T01:47:50.484Z,17.97
2019-01-18T01:48:50.365Z,17.97
2019-01-18T01:49:50.627Z,17.97
2019-01-18T01:50:51.020Z,17.97
2019-01-18T01:51:50.335Z,17.95
2019-01-18T01:52:50.306Z,17.95
2019-01-18T01:53:50.356Z,17.97
2019-01-18T01:54:50.374Z,17.95
2019-01-18T01:55:50.399Z,17.95
2019-01-18T01:56:50.552Z,17.95
2019-01-18T01:57:50.224Z,17.94
2019-01-18T01:58:50.668Z,17.95
2019-01-18T01:59:50.557Z,17.91
2019-01-18T02:00:50.256Z,17.94
2019-01-18T02:01:50.406Z,17.93
2019-01-18T02:02:50.390Z,17.91
2019-01-18T02:03:51.217Z,17.93
2019-01-18T02:04:52.349Z,17.93
2019-01-18T02:05:50.777Z,17.91
2019-01-18T02:06:50.692Z,17.91
2019-01-18T02:07:50.558Z,17.89
2019-01-18T02:08:50.491Z,17.88
2019-01-18T02:09:50.502Z,17.91
2019-01-18T02:10:50.706Z,17.89
2019-01-18T02:11:50.433Z,17.87
2019-01-18T02:12:50.270Z,17.89
2019-01-18T02:13:50.365Z,17.89
2019-01-18T02:14:50.423Z,17.89
2019-01-18T02:15:50.336Z,17.89
2019-01-18T02:16:50.494Z,17.88
2019-01-18T02:17:50.412Z,17.88
2019-01-18T02:18:50.464Z,17.85
2019-01-18T02:19:50.358Z,17.87
2019-01-18T02:20:50.432Z,17.85
2019-01-18T02:21:50.403Z,17.87
2019-01-18T02:22:50.759Z,17.87
2019-01-18T02:23:50.706Z,17.87
2019-01-18T02:24:50.374Z,17.85
2019-01-18T02:25:50.495Z,17.85
2019-01-18T02:26:54.299Z,17.85
2019-01-18T02:27:50.333Z,17.85
2019-01-18T02:28:50.416Z,17.85
2019-01-18T02:29:57.106Z,17.87
2019-01-18T02:30:50.385Z,17.85
2019-01-18T02:31:50.402Z,17.82
2019-01-18T02:32:50.445Z,17.84
2019-01-18T02:33:50.783Z,17.84
2019-01-18T02:34:50.696Z,17.82
2019-01-18T02:35:53.051Z,17.81
2019-01-18T02:36:50.333Z,17.82
2019-01-18T02:37:50.967Z,17.81
2019-01-18T02:38:50.805Z,17.8
2019-01-18T02:39:50.457Z,17.82
2019-01-18T02:40:50.976Z,17.81
2019-01-18T02:41:51.116Z,17.8
2019-01-18T02:42:50.980Z,17.8
2019-01-18T02:43:50.851Z,17.81
2019-01-18T02:44:50.870Z,17.78
2019-01-18T02:45:50.822Z,17.8
2019-01-18T02:46:52.099Z,17.8
2019-01-18T02:47:51.068Z,17.77
2019-01-18T02:48:50.509Z,17.78
2019-01-18T02:49:50.224Z,17.77
2019-01-18T02:50:50.352Z,17.78
2019-01-18T02:51:50.607Z,17.76
2019-01-18T02:52:50.523Z,17.77
2019-01-18T02:53:50.509Z,17.76
2019-01-18T02:54:50.717Z,17.74
2019-01-18T02:55:50.737Z,17.77
2019-01-18T02:56:50.732Z,17.77
2019-01-18T02:57:50.565Z,17.78
2019-01-18T02:58:50.544Z,17.76
2019-01-18T02:59:50.852Z,17.76
2019-01-18T03:00:50.514Z,17.73
2019-01-18T03:01:51.966Z,17.77
2019-01-18T03:02:50.450Z,17.77
2019-01-18T03:03:51.095Z,17.74
2019-01-18T03:04:50.380Z,17.73
2019-01-18T03:05:51.574Z,17.73
2019-01-18T03:06:50.473Z,17.71
2019-01-18T03:07:50.711Z,17.73
2019-01-18T03:08:50.847Z,17.73
2019-01-18T03:09:50.640Z,17.74
2019-01-18T03:10:50.447Z,17.73
2019-01-18T03:11:50.679Z,17.74
2019-01-18T03:12:53.090Z,17.73
2019-01-18T03:13:50.436Z,17.7
2019-01-18T03:14:50.658Z,17.73
2019-01-18T03:15:50.358Z,17.71
2019-01-18T03:16:50.985Z,17.71
2019-01-18T03:17:50.472Z,17.73
2019-01-18T03:18:50.258Z,17.71
2019-01-18T03:19:50.744Z,17.7
2019-01-18T03:20:52.356Z,17.68
2019-01-18T03:21:50.391Z,17.71
2019-01-18T03:22:50.708Z,17.71
2019-01-18T03:23:50.901Z,17.68
2019-01-18T03:24:50.550Z,17.68
2019-01-18T03:25:50.222Z,17.67
2019-01-18T03:26:50.510Z,17.67
2019-01-18T03:27:50.368Z,17.7
2019-01-18T03:28:50.857Z,17.68
2019-01-18T03:29:50.351Z,17.67
2019-01-18T03:30:50.408Z,17.67
2019-01-18T03:31:51.216Z,17.68
2019-01-18T03:32:50.743Z,17.67
2019-01-18T03:33:50.618Z,17.67
2019-01-18T03:34:50.455Z,17.64
2019-01-18T03:35:50.538Z,17.64
2019-01-18T03:36:50.220Z,17.66
2019-01-18T03:37:50.679Z,17.64
2019-01-18T03:38:51.847Z,17.66
2019-01-18T03:39:50.638Z,17.64
2019-01-18T03:40:50.599Z,17.63
2019-01-18T03:41:50.783Z,17.63
2019-01-18T03:42:50.637Z,17.63
2019-01-18T03:43:50.548Z,17.63
2019-01-18T03:44:50.271Z,17.61
2019-01-18T03:45:50.650Z,17.64
2019-01-18T03:46:50.457Z,17.61
2019-01-18T03:47:50.411Z,17.64
2019-01-18T03:48:50.495Z,17.63
2019-01-18T03:49:50.780Z,17.59
2019-01-18T03:50:50.499Z,17.63
2019-01-18T03:51:50.590Z,17.61
2019-01-18T03:52:50.782Z,17.6
2019-01-18T03:53:50.179Z,17.61
2019-01-18T03:54:50.336Z,17.61
2019-01-18T03:55:50.352Z,17.59
2019-01-18T03:56:50.214Z,17.6
2019-01-18T03:57:50.379Z,17.6
2019-01-18T03:58:50.516Z,17.6
2019-01-18T03:59:50.746Z,17.57
2019-01-18T04:00:50.316Z,17.59
2019-01-18T04:01:50.672Z,17.6
2019-01-18T04:02:50.428Z,17.57
2019-01-18T04:03:50.397Z,17.6
2019-01-18T04:04:50.457Z,17.6
2019-01-18T04:05:50.563Z,17.57
2019-01-18T04:06:50.717Z,17.59
2019-01-18T04:07:50.706Z,17.59
2019-01-18T04:08:50.337Z,17.57
2019-01-18T04:09:50.535Z,17.56
2019-01-18T04:10:50.981Z,17.59
2019-01-18T04:11:50.652Z,17.56
2019-01-18T04:12:50.444Z,17.56
2019-01-18T04:13:50.712Z,17.54
2019-01-18T04:14:50.231Z,17.57
2019-01-18T04:15:50.223Z,17.54
2019-01-18T04:16:50.609Z,17.54
2019-01-18T04:17:50.692Z,17.52
2019-01-18T04:18:50.835Z,17.53
2019-01-18T04:19:50.509Z,17.57
2019-01-18T04:20:52.165Z,17.56
2019-01-18T04:21:50.822Z,17.54
2019-01-18T04:22:51.492Z,17.53
2019-01-18T04:23:50.601Z,17.52
2019-01-18T04:24:51.040Z,17.53
2019-01-18T04:25:50.293Z,17.54
2019-01-18T04:26:50.367Z,17.52
2019-01-18T04:27:50.469Z,17.53
2019-01-18T04:28:50.392Z,17.56
2019-01-18T04:29:51.008Z,17.53
2019-01-18T04:30:50.410Z,17.53
2019-01-18T04:31:50.449Z,17.52
2019-01-18T04:32:50.337Z,17.52
2019-01-18T04:33:50.959Z,17.52
2019-01-18T04:34:50.539Z,17.5
2019-01-18T04:35:50.479Z,17.53
2019-01-18T04:36:50.691Z,17.5
2019-01-18T04:37:51.423Z,17.5
2019-01-18T04:38:50.958Z,17.52
2019-01-18T04:39:50.819Z,17.5
2019-01-18T04:40:50.387Z,17.52
2019-01-18T04:41:50.233Z,17.52
2019-01-18T04:42:50.753Z,17.52
2019-01-18T04:43:50.790Z,17.52
2019-01-18T04:44:50.761Z,17.52
2019-01-18T04:45:50.898Z,17.53
2019-01-18T04:46:50.498Z,17.52
2019-01-18T04:47:51.024Z,17.53
2019-01-18T04:48:50.929Z,17.53
2019-01-18T04:49:50.752Z,17.56
2019-01-18T04:50:50.348Z,17.56
2019-01-18T04:51:50.457Z,17.54
2019-01-18T04:52:50.251Z,17.56
2019-01-18T04:53:51.588Z,17.59
2019-01-18T04:54:50.188Z,17.57
2019-01-18T04:55:50.251Z,17.57
2019-01-18T04:56:50.381Z,17.6
2019-01-18T04:57:51.230Z,17.61
2019-01-18T04:58:50.531Z,17.6
2019-01-18T04:59:51.012Z,17.66
2019-01-18T05:00:51.359Z,17.64
2019-01-18T05:01:50.510Z,17.68
2019-01-18T05:02:50.249Z,17.7
2019-01-18T05:03:52.352Z,17.73
2019-01-18T05:04:50.217Z,17.73
2019-01-18T05:05:50.593Z,17.74
2019-01-18T05:06:50.443Z,17.76
2019-01-18T05:07:50.347Z,17.78
2019-01-18T05:08:50.440Z,17.8
2019-01-18T05:09:51.379Z,17.82
2019-01-18T05:10:51.169Z,17.84
2019-01-18T05:11:50.547Z,17.85
2019-01-18T05:12:50.970Z,17.85
2019-01-18T05:13:50.340Z,17.91
2019-01-18T05:14:50.722Z,17.93
2019-01-18T05:15:51.127Z,17.94
2019-01-18T05:16:50.346Z,17.94
2019-01-18T05:17:50.728Z,17.97
2019-01-18T05:18:51.014Z,17.97
2019-01-18T05:19:51.064Z,18.01
2019-01-18T05:20:50.409Z,18.02
2019-01-18T05:21:50.468Z,18.04
2019-01-18T05:22:50.346Z,18.07
2019-01-18T05:23:50.915Z,18.08
2019-01-18T05:24:50.461Z,18.12
2019-01-18T05:25:50.392Z,18.09
2019-01-18T05:26:50.882Z,18.13
2019-01-18T05:27:50.165Z,18.16
2019-01-18T05:28:50.267Z,18.16
2019-01-18T05:29:50.292Z,18.19
2019-01-18T05:30:50.122Z,18.21
2019-01-18T05:31:50.937Z,18.19
2019-01-18T05:32:50.775Z,18.23
2019-01-18T05:33:51.359Z,18.23
2019-01-18T05:34:50.247Z,18.25
2019-01-18T05:35:50.806Z,18.26
2019-01-18T05:36:50.880Z,18.28
2019-01-18T05:37:50.333Z,18.28
2019-01-18T05:38:50.324Z,18.32
2019-01-18T05:39:50.427Z,18.35
2019-01-18T05:40:50.502Z,18.35
2019-01-18T05:41:50.294Z,18.33
2019-01-18T05:42:50.700Z,18.35
2019-01-18T05:43:50.254Z,18.36
2019-01-18T05:44:50.392Z,18.39
2019-01-18T05:45:50.451Z,18.4
2019-01-18T05:46:50.294Z,18.4
2019-01-18T05:47:50.302Z,18.43
2019-01-18T05:48:50.550Z,18.43
2019-01-18T05:49:52.159Z,18.44
2019-01-18T05:50:50.444Z,18.46
2019-01-18T05:51:50.355Z,18.46
2019-01-18T05:52:50.342Z,18.49
2019-01-18T05:53:50.224Z,18.49
2019-01-18T05:54:50.430Z,18.49
2019-01-18T05:55:50.271Z,18.51
2019-01-18T05:56:50.561Z,18.53
2019-01-18T05:57:50.338Z,18.54
2019-01-18T05:58:50.391Z,18.54
2019-01-18T05:59:50.551Z,18.53
2019-01-18T06:00:56.364Z,18.57
2019-01-18T06:01:50.405Z,18.57
2019-01-18T06:02:50.570Z,18.57
2019-01-18T06:03:50.909Z,18.56
2019-01-18T06:04:51.202Z,18.6
2019-01-18T06:05:50.925Z,18.6
2019-01-18T06:06:50.601Z,18.62
2019-01-18T06:07:50.446Z,18.63
2019-01-18T06:08:50.331Z,18.62
2019-01-18T06:09:50.137Z,18.63
2019-01-18T06:10:50.309Z,18.64
2019-01-18T06:11:50.584Z,18.67
2019-01-18T06:12:50.334Z,18.66
2019-01-18T06:13:51.672Z,18.67
2019-01-18T06:14:50.809Z,18.68
2019-01-18T06:15:50.771Z,18.68
2019-01-18T06:16:50.372Z,18.71
2019-01-18T06:17:50.533Z,18.68
2019-01-18T06:18:50.654Z,18.68
2019-01-18T06:19:50.714Z,18.73
2019-01-18T06:20:51.235Z,18.73
2019-01-18T06:21:50.251Z,18.73
2019-01-18T06:22:50.433Z,18.74
2019-01-18T06:23:50.742Z,18.75
2019-01-18T06:24:50.306Z,18.77
2019-01-18T06:25:50.473Z,18.75
2019-01-18T06:26:50.589Z,18.78
2019-01-18T06:27:50.755Z,18.77
2019-01-18T06:28:50.947Z,18.8
2019-01-18T06:29:50.558Z,18.8
2019-01-18T06:30:50.375Z,18.84
2019-01-18T06:31:50.346Z,18.83
2019-01-18T06:32:50.841Z,18.85
2019-01-18T06:33:50.166Z,18.84
2019-01-18T06:34:52.283Z,18.84
2019-01-18T06:35:53.067Z,18.84
2019-01-18T06:36:50.531Z,18.88
2019-01-18T06:37:50.806Z,18.87
2019-01-18T06:38:50.664Z,18.84
2019-01-18T06:39:50.451Z,18.87
2019-01-18T06:40:51.301Z,18.9
2019-01-18T06:41:51.876Z,18.91
2019-01-18T06:42:50.484Z,18.9
2019-01-18T06:43:50.431Z,18.9
2019-01-18T06:44:50.811Z,18.91
2019-01-18T06:45:50.695Z,18.91
2019-01-18T06:46:51.173Z,18.92
2019-01-18T06:47:50.604Z,18.94
2019-01-18T06:48:50.991Z,18.94
2019-01-18T06:49:50.685Z,18.95
2019-01-18T06:50:50.338Z,18.87
2019-01-18T06:51:50.639Z,18.74
2019-01-18T06:52:50.847Z,18.67
2019-01-18T06:53:50.856Z,18.67
2019-01-18T06:54:50.298Z,18.64
2019-01-18T06:55:50.756Z,18.66
2019-01-18T06:56:50.447Z,18.71
2019-01-18T06:57:50.500Z,18.74
2019-01-18T06:58:50.505Z,18.77
2019-01-18T06:59:50.220Z,18.8
2019-01-18T07:00:51.116Z,18.84
2019-01-18T07:01:52.111Z,18.9
2019-01-18T07:02:50.523Z,18.92
2019-01-18T07:03:50.353Z,18.92
2019-01-18T07:04:50.670Z,18.97
2019-01-18T07:05:52.185Z,18.98
2019-01-18T07:06:50.269Z,18.99
2019-01-18T07:07:50.940Z,19.02
2019-01-18T07:08:50.477Z,19.05
2019-01-18T07:09:50.562Z,19.06
2019-01-18T07:10:50.891Z,19.09
2019-01-18T07:11:50.161Z,19.09
2019-01-18T07:12:50.303Z,19.11
2019-01-18T07:13:52.094Z,19.12
2019-01-18T07:14:50.406Z,19.12
2019-01-18T07:15:50.423Z,19.15
2019-01-18T07:16:51.120Z,19.16
2019-01-18T07:17:50.480Z,19.16
2019-01-18T07:18:50.300Z,19.18
2019-01-18T07:19:50.367Z,19.18
2019-01-18T07:20:50.504Z,19.19
2019-01-18T07:21:50.734Z,19.2
2019-01-18T07:22:50.376Z,19.22
2019-01-18T07:23:50.192Z,19.22
2019-01-18T07:24:50.279Z,19.22
2019-01-18T07:25:50.392Z,19.22
2019-01-18T07:26:50.257Z,19.22
2019-01-18T07:27:50.388Z,19.25
2019-01-18T07:28:52.014Z,19.25
2019-01-18T07:29:50.183Z,19.27
2019-01-18T07:30:50.125Z,19.27
2019-01-18T07:31:50.356Z,19.27
2019-01-18T07:32:50.520Z,19.29
2019-01-18T07:33:50.536Z,19.3
2019-01-18T07:34:50.602Z,19.32
2019-01-18T07:35:50.513Z,19.32
2019-01-18T07:36:50.426Z,19.32
2019-01-18T07:37:50.380Z,19.36
2019-01-18T07:38:50.188Z,19.36
2019-01-18T07:39:50.373Z,19.36
2019-01-18T07:40:50.543Z,19.37
2019-01-18T07:41:50.515Z,19.37
2019-01-18T07:42:50.609Z,19.37
2019-01-18T07:43:50.392Z,19.4
2019-01-18T07:44:50.828Z,19.39
2019-01-18T07:45:50.314Z,19.39
2019-01-18T07:46:50.605Z,19.42
2019-01-18T07:47:51.141Z,19.43
2019-01-18T07:48:51.074Z,19.45
2019-01-18T07:49:50.340Z,19.49
2019-01-18T07:50:50.376Z,19.5
2019-01-18T07:51:50.537Z,19.5
2019-01-18T07:52:50.671Z,19.54
2019-01-18T07:53:50.902Z,19.54
2019-01-18T07:54:50.160Z,19.56
2019-01-18T07:55:50.587Z,19.6
2019-01-18T07:56:50.473Z,19.57
2019-01-18T07:57:50.332Z,19.57
2019-01-18T07:58:50.361Z,19.6
2019-01-18T07:59:50.931Z,19.61
2019-01-18T08:00:50.557Z,19.61
2019-01-18T08:01:51.298Z,19.61
2019-01-18T08:02:50.681Z,19.63
2019-01-18T08:03:50.720Z,19.63
2019-01-18T08:04:50.347Z,19.61
2019-01-18T08:05:51.734Z,19.64
2019-01-18T08:06:50.368Z,19.67
2019-01-18T08:07:50.737Z,19.65
2019-01-18T08:08:50.688Z,19.67
2019-01-18T08:09:50.346Z,19.68
2019-01-18T08:10:50.629Z,19.7
2019-01-18T08:11:50.568Z,19.71
2019-01-18T08:12:51.551Z,19.73
2019-01-18T08:13:50.568Z,19.7
2019-01-18T08:14:50.619Z,19.7
2019-01-18T08:15:50.122Z,19.68
2019-01-18T08:16:50.636Z,19.63
2019-01-18T08:17:50.622Z,19.61
2019-01-18T08:18:50.397Z,19.58
2019-01-18T08:19:51.356Z,19.54
2019-01-18T08:20:50.416Z,19.54
2019-01-18T08:21:50.450Z,19.57
2019-01-18T08:22:50.297Z,19.57
2019-01-18T08:23:50.364Z,19.58
2019-01-18T08:24:50.962Z,19.63
2019-01-18T08:25:51.164Z,19.6
2019-01-18T08:26:50.767Z,19.61
2019-01-18T08:27:51.316Z,19.63
2019-01-18T08:28:51.151Z,19.63
2019-01-18T08:29:50.873Z,19.63
2019-01-18T08:30:50.470Z,19.63
2019-01-18T08:31:50.748Z,19.63
2019-01-18T08:32:50.220Z,19.64
2019-01-18T08:33:50.432Z,19.68
2019-01-18T08:34:50.135Z,19.67
2019-01-18T08:35:50.346Z,19.68
2019-01-18T08:36:50.456Z,19.67
2019-01-18T08:37:50.567Z,19.65
2019-01-18T08:38:50.458Z,19.65
2019-01-18T08:39:52.327Z,19.67
2019-01-18T08:40:50.291Z,19.68
2019-01-18T08:41:50.663Z,19.71
2019-01-18T08:42:51.317Z,19.71
2019-01-18T08:43:52.148Z,19.74
2019-01-18T08:44:50.632Z,19.74
2019-01-18T08:45:50.825Z,19.71
2019-01-18T08:46:50.370Z,19.74
2019-01-18T08:47:50.759Z,19.77
2019-01-18T08:48:50.249Z,19.77
2019-01-18T08:49:50.455Z,19.77
2019-01-18T08:50:50.367Z,19.77
2019-01-18T08:51:50.853Z,19.75
2019-01-18T08:52:50.326Z,19.77
2019-01-18T08:53:50.303Z,19.8
2019-01-18T08:54:50.390Z,19.82
2019-01-18T08:55:50.385Z,19.82
2019-01-18T08:56:50.244Z,19.84
2019-01-18T08:57:50.074Z,19.82
2019-01-18T08:58:50.804Z,19.84
2019-01-18T08:59:50.735Z,19.84
2019-01-18T09:00:52.076Z,19.84
2019-01-18T09:01:50.904Z,19.85
2019-01-18T09:02:52.236Z,19.86
2019-01-18T09:03:51.044Z,19.86
2019-01-18T09:04:50.295Z,19.88
2019-01-18T09:05:50.671Z,19.86
2019-01-18T09:06:50.354Z,19.89
2019-01-18T09:07:50.482Z,19.88
2019-01-18T09:08:50.299Z,19.89
2019-01-18T09:09:26.011Z,19.95
2019-01-18T09:10:50.608Z,20.02
2019-01-18T09:11:50.747Z,20.07
2019-01-18T09:12:50.822Z,20.08
2019-01-18T09:13:50.380Z,20.12
2019-01-18T09:14:50.753Z,20.13
2019-01-18T09:15:50.810Z,20.18
2019-01-18T09:16:50.659Z,20.18
2019-01-18T09:17:50.796Z,20.18
2019-01-18T09:18:50.784Z,20.19
2019-01-18T09:19:50.452Z,20.18
2019-01-18T09:20:50.625Z,20.19
2019-01-18T09:21:50.781Z,20.19
2019-01-18T09:22:50.484Z,20.18
2019-01-18T09:23:50.415Z,20.18
2019-01-18T09:24:50.599Z,20.16
2019-01-18T09:25:50.836Z,20.16
2019-01-18T09:26:50.834Z,20.13
2019-01-18T09:27:50.924Z,20.16
2019-01-18T09:28:50.790Z,20.16
2019-01-18T09:29:50.766Z,20.15
2019-01-18T09:30:50.860Z,20.16
2019-01-18T09:31:51.084Z,20.16
2019-01-18T09:32:50.961Z,20.12
2019-01-18T09:33:50.902Z,20.16
2019-01-18T09:34:52.271Z,20.19
2019-01-18T09:35:50.470Z,20.13
2019-01-18T09:36:51.331Z,20.15
2019-01-18T09:37:51.008Z,20.12
2019-01-18T09:38:51.246Z,20.16
2019-01-18T09:39:51.045Z,20.16
2019-01-18T09:40:51.145Z,20.13
2019-01-18T09:41:51.893Z,20.15
2019-01-18T09:42:50.564Z,20.15
2019-01-18T09:43:50.991Z,20.15
2019-01-18T09:44:50.547Z,20.12
2019-01-18T09:45:50.612Z,20.15
2019-01-18T09:46:50.625Z,20.13
2019-01-18T09:47:50.704Z,20.13
2019-01-18T09:48:50.546Z,20.15
2019-01-18T09:49:50.492Z,20.15
2019-01-18T09:50:50.914Z,20.18
2019-01-18T09:51:50.948Z,20.18
2019-01-18T09:52:51.448Z,20.15
2019-01-18T09:53:50.459Z,20.19
2019-01-18T09:54:50.433Z,20.16
2019-01-18T09:55:50.732Z,20.16
2019-01-18T09:56:50.516Z,20.16
2019-01-18T09:57:51.392Z,20.18
2019-01-18T09:58:50.952Z,20.16
2019-01-18T09:59:50.804Z,20.16
2019-01-18T10:00:50.474Z,20.19
2019-01-18T10:01:52.465Z,20.2
2019-01-18T10:02:50.357Z,20.22
2019-01-18T10:03:52.389Z,20.23
2019-01-18T10:04:50.656Z,20.23
2019-01-18T10:05:50.443Z,20.25
2019-01-18T10:06:50.613Z,20.25
2019-01-18T10:07:50.793Z,20.23
2019-01-18T10:08:50.367Z,20.27
2019-01-18T10:09:51.306Z,20.27
2019-01-18T10:10:51.198Z,20.3
2019-01-18T10:11:50.497Z,20.32
2019-01-18T10:12:51.833Z,20.29
2019-01-18T10:13:50.396Z,20.35
2019-01-18T10:14:50.579Z,20.36
2019-01-18T10:15:50.407Z,20.42
2019-01-18T10:16:50.708Z,20.42
2019-01-18T10:17:51.008Z,20.42
2019-01-18T10:18:51.007Z,20.42
2019-01-18T10:19:50.412Z,20.42
2019-01-18T10:20:50.606Z,20.42
2019-01-18T10:21:52.322Z,20.43
2019-01-18T10:22:51.074Z,20.43
2019-01-18T10:23:50.750Z,20.44
2019-01-18T10:24:50.736Z,20.46
2019-01-18T10:25:50.787Z,20.46
2019-01-18T10:26:50.556Z,20.48
2019-01-18T10:27:50.449Z,20.5
2019-01-18T10:28:50.910Z,20.5
2019-01-18T10:29:50.449Z,20.5
2019-01-18T10:30:50.644Z,20.5
2019-01-18T10:31:56.575Z,20.48
2019-01-18T10:32:50.401Z,20.5
2019-01-18T10:33:50.514Z,20.48
2019-01-18T10:34:50.542Z,20.48
2019-01-18T10:35:50.636Z,20.51
2019-01-18T10:36:50.505Z,20.48
2019-01-18T10:37:50.346Z,20.53
2019-01-18T10:38:50.525Z,20.51
2019-01-18T10:39:50.811Z,20.51
2019-01-18T10:40:50.814Z,20.51
2019-01-18T10:41:50.994Z,20.51
2019-01-18T10:42:50.811Z,20.51
2019-01-18T10:43:52.384Z,20.54
2019-01-18T10:44:50.630Z,20.55
2019-01-18T10:45:52.559Z,20.55
2019-01-18T10:46:51.472Z,20.55
2019-01-18T10:47:50.587Z,20.57
2019-01-18T10:48:51.064Z,20.54
2019-01-18T10:49:50.663Z,20.53
2019-01-18T10:50:50.882Z,20.55
2019-01-18T10:51:51.341Z,20.54
2019-01-18T10:52:50.462Z,20.5
2019-01-18T10:53:50.539Z,20.51
2019-01-18T10:54:50.629Z,20.51
2019-01-18T10:55:50.403Z,20.53
2019-01-18T10:56:50.567Z,20.51
2019-01-18T10:57:50.645Z,20.53
2019-01-18T10:58:50.827Z,20.55
2019-01-18T10:59:50.825Z,20.55
2019-01-18T11:00:50.736Z,20.5
2019-01-18T11:01:50.417Z,20.5
2019-01-18T11:02:50.762Z,20.46
2019-01-18T11:03:50.753Z,20.44
2019-01-18T11:04:50.641Z,20.43
2019-01-18T11:05:51.061Z,20.42
2019-01-18T11:06:51.071Z,20.39
2019-01-18T11:07:50.772Z,20.36
2019-01-18T11:08:50.943Z,20.37
2019-01-18T11:09:50.885Z,20.35
2019-01-18T11:10:50.703Z,20.37
2019-01-18T11:11:50.731Z,20.35
2019-01-18T11:12:50.919Z,20.33
2019-01-18T11:13:50.662Z,20.33
2019-01-18T11:14:50.536Z,20.3
2019-01-18T11:15:51.129Z,20.3
2019-01-18T11:16:50.718Z,20.3
2019-01-18T11:17:50.390Z,20.3
2019-01-18T11:18:50.615Z,20.3
2019-01-18T11:19:50.470Z,20.27
2019-01-18T11:20:51.437Z,20.3
2019-01-18T11:21:50.911Z,20.27
2019-01-18T11:22:50.703Z,20.26
2019-01-18T11:23:50.689Z,20.27
2019-01-18T11:24:50.486Z,20.3
2019-01-18T11:25:50.672Z,20.29
2019-01-18T11:26:50.485Z,20.29
2019-01-18T11:27:51.428Z,20.29
2019-01-18T11:28:50.890Z,20.29
2019-01-18T11:29:50.746Z,20.29
2019-01-18T11:30:50.568Z,20.27
2019-01-18T11:31:51.871Z,20.29
2019-01-18T11:32:50.745Z,20.3
2019-01-18T11:33:50.772Z,20.3
2019-01-18T11:34:50.982Z,20.3
2019-01-18T11:35:50.361Z,20.29
2019-01-18T11:36:50.882Z,20.3
2019-01-18T11:37:50.515Z,20.3
2019-01-18T11:38:50.798Z,20.27
2019-01-18T11:39:50.810Z,20.3
2019-01-18T11:40:50.834Z,20.3
2019-01-18T11:41:50.761Z,20.3
2019-01-18T11:42:50.870Z,20.29
2019-01-18T11:43:50.844Z,20.3
2019-01-18T11:44:50.628Z,20.33
2019-01-18T11:45:50.973Z,20.35
2019-01-18T11:46:51.027Z,20.35
2019-01-18T11:47:50.785Z,20.36
2019-01-18T11:48:50.909Z,20.36
2019-01-18T11:49:50.490Z,20.35
2019-01-18T11:50:50.573Z,20.36
2019-01-18T11:51:50.723Z,20.39
2019-01-18T11:52:50.359Z,20.42
2019-01-18T11:53:50.809Z,20.47
2019-01-18T11:54:50.646Z,20.47
2019-01-18T11:55:50.708Z,20.51
2019-01-18T11:56:50.800Z,20.51
2019-01-18T11:57:51.538Z,20.51
2019-01-18T11:58:50.838Z,20.51
2019-01-18T11:59:52.424Z,20.5
2019-01-18T12:00:50.854Z,20.48
2019-01-18T12:01:51.550Z,20.5
2019-01-18T12:02:50.414Z,20.51
2019-01-18T12:03:50.992Z,20.48
2019-01-18T12:04:51.274Z,20.48
2019-01-18T12:05:50.988Z,20.51
2019-01-18T12:06:50.629Z,20.51
2019-01-18T12:07:50.558Z,20.51
2019-01-18T12:08:50.664Z,20.54
2019-01-18T12:09:50.816Z,20.54
2019-01-18T12:10:51.167Z,20.55
2019-01-18T12:11:53.441Z,20.57
2019-01-18T12:12:50.445Z,20.59
2019-01-18T12:13:50.970Z,20.57
2019-01-18T12:14:50.764Z,20.59
2019-01-18T12:15:50.699Z,20.59
2019-01-18T12:16:50.795Z,20.59
2019-01-18T12:17:50.414Z,20.61
2019-01-18T12:18:50.778Z,20.64
2019-01-18T12:19:50.345Z,20.61
2019-01-18T12:20:50.322Z,20.67
2019-01-18T12:21:50.325Z,20.63
2019-01-18T12:22:50.722Z,20.64
2019-01-18T12:23:50.717Z,20.64
2019-01-18T12:24:50.741Z,20.63
2019-01-18T12:25:50.740Z,20.63
2019-01-18T12:26:50.741Z,20.63
2019-01-18T12:27:50.472Z,20.6
2019-01-18T12:28:51.729Z,20.63
2019-01-18T12:29:50.661Z,20.63
2019-01-18T12:30:50.836Z,20.64
2019-01-18T12:31:50.789Z,20.63
2019-01-18T12:32:50.682Z,20.61
2019-01-18T12:33:50.796Z,20.63
2019-01-18T12:34:50.788Z,20.64
2019-01-18T12:35:50.499Z,20.64
2019-01-18T12:36:59.275Z,20.63
2019-01-18T12:37:50.548Z,20.64
2019-01-18T12:38:50.498Z,20.63
2019-01-18T12:39:50.869Z,20.63
2019-01-18T12:40:50.886Z,20.64
2019-01-18T12:41:50.493Z,20.63
2019-01-18T12:42:50.764Z,20.59
2019-01-18T12:43:50.790Z,20.57
2019-01-18T12:44:50.746Z,20.55
2019-01-18T12:45:50.301Z,20.6
2019-01-18T12:47:00.454Z,20.61
2019-01-18T12:48:00.340Z,20.6
2019-01-18T12:49:00.265Z,20.6
2019-01-18T12:50:00.456Z,20.6
2019-01-18T12:51:00.447Z,20.63
2019-01-18T12:52:00.397Z,20.66
2019-01-18T12:53:00.425Z,20.66
2019-01-18T12:54:00.400Z,20.68
2019-01-18T12:55:00.522Z,20.67
2019-01-18T12:56:00.137Z,20.67